sensor_id;sensor_type;location;lat;lon;timestamp;P1;durP1;ratioP1;P2;durP2;ratioP2
24485;SDS011;13449;49.374;8.584;2023-09-12T00:02:13;15.35;;;5.55;;
24485;SDS011;13449;49.374;8.584;2023-09-12T00:04:39;13.13;;;5.05;;
24485;SDS011;13449;49.374;8.584;2023-09-12T00:07:08;12.60;;;5.40;;
24485;SDS011;13449;49.374;8.584;2023-09-12T00:09:35;7.93;;;5.25;;
24485;SDS011;13449;49.374;8.584;2023-09-12T00:12:02;14.52;;;6.15;;
24485;SDS011;13449;49.374;8.584;2023-09-12T00:14:29;12.20;;;3.95;;
24485;SDS011;13449;49.374;8.584;2023-09-12T00:16:55;9.75;;;5.07;;
24485;SDS011;13449;49.374;8.584;2023-09-12T00:19:22;12.60;;;5.82;;
24485;SDS011;13449;49.374;8.584;2023-09-12T00:21:48;14.43;;;5.88;;
24485;SDS011;13449;49.374;8.584;2023-09-12T00:24:15;13.13;;;5.05;;
24485;SDS011;13449;49.374;8.584;2023-09-12T00:26:42;19.80;;;6.20;;
24485;SDS011;13449;49.374;8.584;2023-09-12T00:29:08;10.55;;;4.10;;
24485;SDS011;13449;49.374;8.584;2023-09-12T00:31:37;8.32;;;5.75;;
24485;SDS011;13449;49.374;8.584;2023-09-12T00:34:06;5.75;;;3.65;;
24485;SDS011;13449;49.374;8.584;2023-09-12T00:36:32;12.15;;;5.57;;
24485;SDS011;13449;49.374;8.584;2023-09-12T00:38:59;15.05;;;5.75;;
24485;SDS011;13449;49.374;8.584;2023-09-12T00:41:28;16.98;;;5.63;;
24485;SDS011;13449;49.374;8.584;2023-09-12T00:43:54;8.13;;;4.68;;
24485;SDS011;13449;49.374;8.584;2023-09-12T00:46:21;4.68;;;3.20;;
24485;SDS011;13449;49.374;8.584;2023-09-12T00:48:49;7.13;;;4.43;;
24485;SDS011;13449;49.374;8.584;2023-09-12T00:51:20;16.02;;;5.13;;
24485;SDS011;13449;49.374;8.584;2023-09-12T00:53:51;13.40;;;5.70;;
24485;SDS011;13449;49.374;8.584;2023-09-12T00:56:20;8.73;;;4.32;;
24485;SDS011;13449;49.374;8.584;2023-09-12T00:58:46;13.95;;;5.80;;
24485;SDS011;13449;49.374;8.584;2023-09-12T01:01:13;11.30;;;6.05;;
24485;SDS011;13449;49.374;8.584;2023-09-12T01:03:42;13.50;;;5.20;;
24485;SDS011;13449;49.374;8.584;2023-09-12T01:06:09;16.95;;;6.25;;
24485;SDS011;13449;49.374;8.584;2023-09-12T01:08:36;13.13;;;5.68;;
24485;SDS011;13449;49.374;8.584;2023-09-12T01:11:08;15.02;;;6.30;;
24485;SDS011;13449;49.374;8.584;2023-09-12T01:13:36;9.18;;;3.67;;
24485;SDS011;13449;49.374;8.584;2023-09-12T01:16:02;10.15;;;4.47;;
24485;SDS011;13449;49.374;8.584;2023-09-12T01:18:29;10.93;;;5.25;;
24485;SDS011;13449;49.374;8.584;2023-09-12T01:29:17;7.60;;;5.38;;
24485;SDS011;13449;49.374;8.584;2023-09-12T01:31:47;14.82;;;5.88;;
24485;SDS011;13449;49.374;8.584;2023-09-12T01:34:15;11.10;;;5.57;;
24485;SDS011;13449;49.374;8.584;2023-09-12T01:36:45;17.77;;;6.53;;
24485;SDS011;13449;49.374;8.584;2023-09-12T01:39:14;11.07;;;5.78;;
24485;SDS011;13449;49.374;8.584;2023-09-12T01:41:40;10.25;;;5.95;;
24485;SDS011;13449;49.374;8.584;2023-09-12T01:44:11;13.65;;;5.32;;
24485;SDS011;13449;49.374;8.584;2023-09-12T01:46:38;17.75;;;5.05;;
24485;SDS011;13449;49.374;8.584;2023-09-12T01:49:06;10.38;;;4.72;;
24485;SDS011;13449;49.374;8.584;2023-09-12T01:51:35;15.25;;;6.15;;
24485;SDS011;13449;49.374;8.584;2023-09-12T01:54:07;11.57;;;6.22;;
24485;SDS011;13449;49.374;8.584;2023-09-12T01:56:34;7.25;;;4.55;;
24485;SDS011;13449;49.374;8.584;2023-09-12T01:59:02;10.00;;;4.32;;
24485;SDS011;13449;49.374;8.584;2023-09-12T02:01:31;7.40;;;4.60;;
24485;SDS011;13449;49.374;8.584;2023-09-12T02:03:57;12.13;;;4.60;;
24485;SDS011;13449;49.374;8.584;2023-09-12T02:06:26;13.23;;;4.53;;
24485;SDS011;13449;49.374;8.584;2023-09-12T02:08:52;10.38;;;5.18;;
24485;SDS011;13449;49.374;8.584;2023-09-12T02:11:19;9.93;;;5.07;;
24485;SDS011;13449;49.374;8.584;2023-09-12T02:13:45;10.77;;;5.03;;
24485;SDS011;13449;49.374;8.584;2023-09-12T02:16:14;12.32;;;5.68;;
24485;SDS011;13449;49.374;8.584;2023-09-12T02:18:43;14.50;;;4.72;;
24485;SDS011;13449;49.374;8.584;2023-09-12T02:21:10;11.82;;;4.40;;
24485;SDS011;13449;49.374;8.584;2023-09-12T02:23:42;12.25;;;6.45;;
24485;SDS011;13449;49.374;8.584;2023-09-12T02:26:08;14.60;;;6.47;;
24485;SDS011;13449;49.374;8.584;2023-09-12T02:28:37;7.13;;;4.93;;
24485;SDS011;13449;49.374;8.584;2023-09-12T02:31:09;8.63;;;4.25;;
24485;SDS011;13449;49.374;8.584;2023-09-12T02:33:39;10.40;;;5.63;;
24485;SDS011;13449;49.374;8.584;2023-09-12T02:36:06;15.65;;;5.82;;
24485;SDS011;13449;49.374;8.584;2023-09-12T02:38:33;11.20;;;5.57;;
24485;SDS011;13449;49.374;8.584;2023-09-12T02:40:59;16.33;;;5.75;;
24485;SDS011;13449;49.374;8.584;2023-09-12T02:43:26;11.13;;;5.28;;
24485;SDS011;13449;49.374;8.584;2023-09-12T02:45:55;8.88;;;4.95;;
24485;SDS011;13449;49.374;8.584;2023-09-12T02:48:22;19.65;;;5.95;;
24485;SDS011;13449;49.374;8.584;2023-09-12T02:50:48;14.15;;;6.18;;
24485;SDS011;13449;49.374;8.584;2023-09-12T02:53:14;12.18;;;6.15;;
24485;SDS011;13449;49.374;8.584;2023-09-12T02:55:42;12.68;;;6.13;;
24485;SDS011;13449;49.374;8.584;2023-09-12T02:58:13;24.25;;;6.63;;
24485;SDS011;13449;49.374;8.584;2023-09-12T03:00:42;12.32;;;6.80;;
24485;SDS011;13449;49.374;8.584;2023-09-12T03:03:09;16.33;;;7.03;;
24485;SDS011;13449;49.374;8.584;2023-09-12T03:05:38;17.38;;;6.65;;
24485;SDS011;13449;49.374;8.584;2023-09-12T03:08:07;16.40;;;6.68;;
24485;SDS011;13449;49.374;8.584;2023-09-12T03:10:34;13.93;;;6.00;;
24485;SDS011;13449;49.374;8.584;2023-09-12T03:13:02;18.67;;;6.95;;
24485;SDS011;13449;49.374;8.584;2023-09-12T03:15:35;18.80;;;7.05;;
24485;SDS011;13449;49.374;8.584;2023-09-12T03:20:28;13.52;;;6.43;;
24485;SDS011;13449;49.374;8.584;2023-09-12T03:22:57;19.25;;;6.95;;
24485;SDS011;13449;49.374;8.584;2023-09-12T03:25:23;20.80;;;6.80;;
24485;SDS011;13449;49.374;8.584;2023-09-12T03:27:50;13.45;;;6.47;;
24485;SDS011;13449;49.374;8.584;2023-09-12T03:30:16;11.98;;;6.97;;
24485;SDS011;13449;49.374;8.584;2023-09-12T03:32:43;8.77;;;5.97;;
24485;SDS011;13449;49.374;8.584;2023-09-12T03:35:09;18.52;;;5.70;;
24485;SDS011;13449;49.374;8.584;2023-09-12T03:37:37;9.70;;;6.10;;
24485;SDS011;13449;49.374;8.584;2023-09-12T03:40:06;9.88;;;5.55;;
24485;SDS011;13449;49.374;8.584;2023-09-12T03:42:33;10.70;;;6.78;;
24485;SDS011;13449;49.374;8.584;2023-09-12T03:45:08;16.05;;;6.43;;
24485;SDS011;13449;49.374;8.584;2023-09-12T03:47:35;9.68;;;5.97;;
24485;SDS011;13449;49.374;8.584;2023-09-12T03:50:01;17.20;;;6.25;;
24485;SDS011;13449;49.374;8.584;2023-09-12T03:52:29;16.73;;;7.10;;
24485;SDS011;13449;49.374;8.584;2023-09-12T03:54:55;14.13;;;7.40;;
24485;SDS011;13449;49.374;8.584;2023-09-12T03:57:23;17.38;;;7.00;;
24485;SDS011;13449;49.374;8.584;2023-09-12T03:59:52;15.05;;;6.57;;
24485;SDS011;13449;49.374;8.584;2023-09-12T04:02:19;18.42;;;6.45;;
24485;SDS011;13449;49.374;8.584;2023-09-12T04:04:45;13.77;;;5.95;;
24485;SDS011;13449;49.374;8.584;2023-09-12T04:07:12;17.52;;;7.43;;
24485;SDS011;13449;49.374;8.584;2023-09-12T04:09:39;13.02;;;6.38;;
24485;SDS011;13449;49.374;8.584;2023-09-12T04:12:06;19.42;;;6.25;;
24485;SDS011;13449;49.374;8.584;2023-09-12T04:14:33;11.10;;;6.13;;
24485;SDS011;13449;49.374;8.584;2023-09-12T04:16:59;11.75;;;4.35;;
24485;SDS011;13449;49.374;8.584;2023-09-12T04:19:29;10.45;;;4.97;;
24485;SDS011;13449;49.374;8.584;2023-09-12T04:21:59;10.73;;;4.90;;
24485;SDS011;13449;49.374;8.584;2023-09-12T04:24:26;8.43;;;4.32;;
24485;SDS011;13449;49.374;8.584;2023-09-12T04:26:53;22.45;;;5.20;;
24485;SDS011;13449;49.374;8.584;2023-09-12T04:29:20;14.35;;;4.75;;
24485;SDS011;13449;49.374;8.584;2023-09-12T04:31:48;7.53;;;3.85;;
24485;SDS011;13449;49.374;8.584;2023-09-12T04:34:16;7.70;;;4.32;;
24485;SDS011;13449;49.374;8.584;2023-09-12T04:36:45;14.90;;;4.22;;
24485;SDS011;13449;49.374;8.584;2023-09-12T04:39:11;6.60;;;4.05;;
24485;SDS011;13449;49.374;8.584;2023-09-12T04:41:40;16.52;;;5.20;;
24485;SDS011;13449;49.374;8.584;2023-09-12T04:44:06;4.35;;;3.88;;
24485;SDS011;13449;49.374;8.584;2023-09-12T04:46:33;12.18;;;4.95;;
24485;SDS011;13449;49.374;8.584;2023-09-12T04:49:00;13.90;;;4.82;;
24485;SDS011;13449;49.374;8.584;2023-09-12T04:51:26;10.15;;;4.82;;
24485;SDS011;13449;49.374;8.584;2023-09-12T04:53:53;10.13;;;5.13;;
24485;SDS011;13449;49.374;8.584;2023-09-12T04:56:20;6.80;;;3.58;;
24485;SDS011;13449;49.374;8.584;2023-09-12T04:58:52;8.82;;;5.13;;
24485;SDS011;13449;49.374;8.584;2023-09-12T05:01:19;6.82;;;4.38;;
24485;SDS011;13449;49.374;8.584;2023-09-12T05:03:46;9.27;;;5.00;;
24485;SDS011;13449;49.374;8.584;2023-09-12T05:06:15;5.13;;;3.70;;
24485;SDS011;13449;49.374;8.584;2023-09-12T05:08:41;11.93;;;4.57;;
24485;SDS011;13449;49.374;8.584;2023-09-12T05:11:08;12.95;;;5.22;;
24485;SDS011;13449;49.374;8.584;2023-09-12T05:13:39;15.93;;;4.47;;
24485;SDS011;13449;49.374;8.584;2023-09-12T05:16:07;14.95;;;5.35;;
24485;SDS011;13449;49.374;8.584;2023-09-12T05:18:36;7.50;;;4.93;;
24485;SDS011;13449;49.374;8.584;2023-09-12T05:21:05;13.13;;;5.65;;
24485;SDS011;13449;49.374;8.584;2023-09-12T05:23:34;21.08;;;5.43;;
24485;SDS011;13449;49.374;8.584;2023-09-12T05:26:03;7.97;;;4.13;;
24485;SDS011;13449;49.374;8.584;2023-09-12T05:28:29;7.35;;;4.10;;
24485;SDS011;13449;49.374;8.584;2023-09-12T05:30:56;6.13;;;3.05;;
24485;SDS011;13449;49.374;8.584;2023-09-12T05:33:26;5.88;;;3.55;;
24485;SDS011;13449;49.374;8.584;2023-09-12T05:35:52;7.15;;;3.55;;
24485;SDS011;13449;49.374;8.584;2023-09-12T05:38:18;5.15;;;3.10;;
24485;SDS011;13449;49.374;8.584;2023-09-12T05:40:45;5.15;;;3.45;;
24485;SDS011;13449;49.374;8.584;2023-09-12T05:43:12;3.03;;;2.80;;
24485;SDS011;13449;49.374;8.584;2023-09-12T05:45:38;7.10;;;4.03;;
24485;SDS011;13449;49.374;8.584;2023-09-12T05:48:05;12.77;;;5.82;;
24485;SDS011;13449;49.374;8.584;2023-09-12T05:50:32;9.52;;;4.22;;
24485;SDS011;13449;49.374;8.584;2023-09-12T05:52:58;14.40;;;5.47;;
24485;SDS011;13449;49.374;8.584;2023-09-12T05:55:25;10.90;;;5.95;;
24485;SDS011;13449;49.374;8.584;2023-09-12T05:57:51;15.25;;;5.60;;
24485;SDS011;13449;49.374;8.584;2023-09-12T06:00:19;7.90;;;3.67;;
24485;SDS011;13449;49.374;8.584;2023-09-12T06:02:46;6.15;;;4.32;;
24485;SDS011;13449;49.374;8.584;2023-09-12T06:05:14;12.38;;;6.00;;
24485;SDS011;13449;49.374;8.584;2023-09-12T06:07:41;10.07;;;4.85;;
24485;SDS011;13449;49.374;8.584;2023-09-12T06:10:11;32.55;;;7.50;;
24485;SDS011;13449;49.374;8.584;2023-09-12T06:12:38;13.93;;;6.80;;
24485;SDS011;13449;49.374;8.584;2023-09-12T06:15:04;13.73;;;6.38;;
24485;SDS011;13449;49.374;8.584;2023-09-12T06:17:34;14.82;;;6.47;;
24485;SDS011;13449;49.374;8.584;2023-09-12T06:20:01;15.05;;;6.93;;
24485;SDS011;13449;49.374;8.584;2023-09-12T06:22:32;17.83;;;7.63;;
24485;SDS011;13449;49.374;8.584;2023-09-12T06:25:00;15.20;;;7.57;;
24485;SDS011;13449;49.374;8.584;2023-09-12T06:27:26;18.77;;;7.82;;
24485;SDS011;13449;49.374;8.584;2023-09-12T06:29:53;23.20;;;7.53;;
24485;SDS011;13449;49.374;8.584;2023-09-12T06:32:24;16.55;;;7.50;;
24485;SDS011;13449;49.374;8.584;2023-09-12T06:34:51;15.27;;;7.40;;
24485;SDS011;13449;49.374;8.584;2023-09-12T06:37:17;26.17;;;7.35;;
24485;SDS011;13449;49.374;8.584;2023-09-12T06:39:44;24.60;;;6.82;;
24485;SDS011;13449;49.374;8.584;2023-09-12T06:42:11;16.08;;;6.50;;
24485;SDS011;13449;49.374;8.584;2023-09-12T06:44:38;15.48;;;7.63;;
24485;SDS011;13449;49.374;8.584;2023-09-12T06:47:04;16.23;;;6.95;;
24485;SDS011;13449;49.374;8.584;2023-09-12T06:49:33;20.10;;;6.97;;
24485;SDS011;13449;49.374;8.584;2023-09-12T06:52:02;10.82;;;5.72;;
24485;SDS011;13449;49.374;8.584;2023-09-12T06:54:29;18.77;;;6.93;;
24485;SDS011;13449;49.374;8.584;2023-09-12T06:56:56;15.23;;;6.82;;
24485;SDS011;13449;49.374;8.584;2023-09-12T06:59:23;12.52;;;6.18;;
24485;SDS011;13449;49.374;8.584;2023-09-12T07:01:52;10.63;;;6.60;;
24485;SDS011;13449;49.374;8.584;2023-09-12T07:04:22;17.90;;;7.05;;
24485;SDS011;13449;49.374;8.584;2023-09-12T07:06:51;10.75;;;6.35;;
24485;SDS011;13449;49.374;8.584;2023-09-12T07:09:18;10.65;;;5.30;;
24485;SDS011;13449;49.374;8.584;2023-09-12T07:11:45;21.15;;;6.38;;
24485;SDS011;13449;49.374;8.584;2023-09-12T07:14:12;10.55;;;5.20;;
24485;SDS011;13449;49.374;8.584;2023-09-12T07:16:39;11.23;;;5.68;;
24485;SDS011;13449;49.374;8.584;2023-09-12T07:19:06;21.15;;;5.35;;
24485;SDS011;13449;49.374;8.584;2023-09-12T07:21:32;17.13;;;5.10;;
24485;SDS011;13449;49.374;8.584;2023-09-12T07:23:59;22.13;;;5.63;;
24485;SDS011;13449;49.374;8.584;2023-09-12T07:26:25;17.70;;;5.68;;
24485;SDS011;13449;49.374;8.584;2023-09-12T07:28:53;14.55;;;5.20;;
24485;SDS011;13449;49.374;8.584;2023-09-12T07:31:22;17.02;;;5.88;;
24485;SDS011;13449;49.374;8.584;2023-09-12T07:33:49;13.07;;;4.95;;
24485;SDS011;13449;49.374;8.584;2023-09-12T07:36:18;18.88;;;6.30;;
24485;SDS011;13449;49.374;8.584;2023-09-12T07:38:44;24.55;;;5.97;;
24485;SDS011;13449;49.374;8.584;2023-09-12T07:41:15;22.67;;;6.47;;
24485;SDS011;13449;49.374;8.584;2023-09-12T07:43:42;19.95;;;5.68;;
24485;SDS011;13449;49.374;8.584;2023-09-12T07:46:12;19.40;;;5.85;;
24485;SDS011;13449;49.374;8.584;2023-09-12T07:48:39;23.42;;;6.10;;
24485;SDS011;13449;49.374;8.584;2023-09-12T07:51:12;16.15;;;5.88;;
24485;SDS011;13449;49.374;8.584;2023-09-12T07:53:43;19.17;;;6.43;;
24485;SDS011;13449;49.374;8.584;2023-09-12T07:56:10;13.30;;;6.25;;
24485;SDS011;13449;49.374;8.584;2023-09-12T07:58:37;15.30;;;5.65;;
24485;SDS011;13449;49.374;8.584;2023-09-12T08:01:07;14.77;;;5.82;;
24485;SDS011;13449;49.374;8.584;2023-09-12T08:03:34;12.50;;;5.43;;
24485;SDS011;13449;49.374;8.584;2023-09-12T08:06:05;13.75;;;5.78;;
24485;SDS011;13449;49.374;8.584;2023-09-12T08:08:31;12.27;;;6.10;;
24485;SDS011;13449;49.374;8.584;2023-09-12T08:10:58;11.52;;;5.75;;
24485;SDS011;13449;49.374;8.584;2023-09-12T08:13:28;12.70;;;5.95;;
24485;SDS011;13449;49.374;8.584;2023-09-12T08:15:55;9.60;;;5.60;;
24485;SDS011;13449;49.374;8.584;2023-09-12T08:18:25;14.05;;;5.63;;
24485;SDS011;13449;49.374;8.584;2023-09-12T08:20:54;15.05;;;6.47;;
24485;SDS011;13449;49.374;8.584;2023-09-12T08:23:21;24.80;;;6.32;;
24485;SDS011;13449;49.374;8.584;2023-09-12T08:25:49;9.90;;;5.60;;
24485;SDS011;13449;49.374;8.584;2023-09-12T08:28:16;17.83;;;5.25;;
24485;SDS011;13449;49.374;8.584;2023-09-12T08:30:44;13.52;;;5.68;;
24485;SDS011;13449;49.374;8.584;2023-09-12T08:33:12;20.85;;;6.55;;
24485;SDS011;13449;49.374;8.584;2023-09-12T08:35:39;13.82;;;6.00;;
24485;SDS011;13449;49.374;8.584;2023-09-12T08:38:06;20.42;;;6.00;;
24485;SDS011;13449;49.374;8.584;2023-09-12T08:40:32;15.45;;;6.57;;
24485;SDS011;13449;49.374;8.584;2023-09-12T08:43:01;15.52;;;5.93;;
24485;SDS011;13449;49.374;8.584;2023-09-12T08:45:29;11.20;;;6.03;;
24485;SDS011;13449;49.374;8.584;2023-09-12T08:47:56;21.95;;;6.13;;
24485;SDS011;13449;49.374;8.584;2023-09-12T08:50:26;17.55;;;6.07;;
24485;SDS011;13449;49.374;8.584;2023-09-12T08:52:57;12.60;;;5.38;;
24485;SDS011;13449;49.374;8.584;2023-09-12T08:55:33;12.68;;;5.60;;
24485;SDS011;13449;49.374;8.584;2023-09-12T08:58:04;8.30;;;5.27;;
24485;SDS011;13449;49.374;8.584;2023-09-12T09:00:34;10.45;;;5.28;;
24485;SDS011;13449;49.374;8.584;2023-09-12T09:03:03;13.35;;;6.10;;
24485;SDS011;13449;49.374;8.584;2023-09-12T09:05:32;12.48;;;6.32;;
24485;SDS011;13449;49.374;8.584;2023-09-12T09:08:03;13.30;;;5.63;;
24485;SDS011;13449;49.374;8.584;2023-09-12T09:10:33;27.27;;;7.10;;
24485;SDS011;13449;49.374;8.584;2023-09-12T09:13:18;6.85;;;5.18;;
24485;SDS011;13449;49.374;8.584;2023-09-12T09:15:48;12.70;;;6.55;;
24485;SDS011;13449;49.374;8.584;2023-09-12T09:18:15;9.77;;;6.00;;
24485;SDS011;13449;49.374;8.584;2023-09-12T09:20:42;18.48;;;5.40;;
24485;SDS011;13449;49.374;8.584;2023-09-12T09:23:11;14.55;;;6.10;;
24485;SDS011;13449;49.374;8.584;2023-09-12T09:25:40;13.32;;;5.70;;
24485;SDS011;13449;49.374;8.584;2023-09-12T09:28:20;10.95;;;5.38;;
24485;SDS011;13449;49.374;8.584;2023-09-12T09:30:49;15.27;;;6.28;;
24485;SDS011;13449;49.374;8.584;2023-09-12T09:33:21;18.20;;;5.82;;
24485;SDS011;13449;49.374;8.584;2023-09-12T09:35:48;13.50;;;6.03;;
24485;SDS011;13449;49.374;8.584;2023-09-12T09:38:20;11.88;;;5.93;;
24485;SDS011;13449;49.374;8.584;2023-09-12T09:40:49;14.75;;;6.20;;
24485;SDS011;13449;49.374;8.584;2023-09-12T09:43:20;13.70;;;5.78;;
24485;SDS011;13449;49.374;8.584;2023-09-12T09:45:47;14.47;;;5.70;;
24485;SDS011;13449;49.374;8.584;2023-09-12T09:48:18;16.58;;;5.88;;
24485;SDS011;13449;49.374;8.584;2023-09-12T09:50:49;9.27;;;4.97;;
24485;SDS011;13449;49.374;8.584;2023-09-12T09:53:29;9.95;;;5.88;;
24485;SDS011;13449;49.374;8.584;2023-09-12T09:56:11;9.23;;;5.28;;
24485;SDS011;13449;49.374;8.584;2023-09-12T09:58:50;14.77;;;5.32;;
24485;SDS011;13449;49.374;8.584;2023-09-12T10:01:19;11.38;;;6.07;;
24485;SDS011;13449;49.374;8.584;2023-09-12T10:03:47;21.52;;;5.47;;
24485;SDS011;13449;49.374;8.584;2023-09-12T10:06:18;9.45;;;5.65;;
24485;SDS011;13449;49.374;8.584;2023-09-12T10:08:50;10.43;;;5.22;;
24485;SDS011;13449;49.374;8.584;2023-09-12T10:11:18;10.25;;;5.22;;
24485;SDS011;13449;49.374;8.584;2023-09-12T10:13:49;13.45;;;5.25;;
24485;SDS011;13449;49.374;8.584;2023-09-12T10:16:24;26.75;;;5.60;;
24485;SDS011;13449;49.374;8.584;2023-09-12T10:18:59;16.15;;;5.28;;
24485;SDS011;13449;49.374;8.584;2023-09-12T10:21:36;20.90;;;5.82;;
24485;SDS011;13449;49.374;8.584;2023-09-12T10:24:08;15.05;;;5.22;;
24485;SDS011;13449;49.374;8.584;2023-09-12T10:26:35;21.48;;;5.50;;
24485;SDS011;13449;49.374;8.584;2023-09-12T10:29:02;14.70;;;5.80;;
24485;SDS011;13449;49.374;8.584;2023-09-12T10:31:30;16.30;;;5.00;;
24485;SDS011;13449;49.374;8.584;2023-09-12T10:33:58;10.60;;;5.32;;
24485;SDS011;13449;49.374;8.584;2023-09-12T10:36:29;10.88;;;5.22;;
24485;SDS011;13449;49.374;8.584;2023-09-12T10:38:56;15.70;;;5.32;;
24485;SDS011;13449;49.374;8.584;2023-09-12T10:41:28;17.55;;;5.05;;
24485;SDS011;13449;49.374;8.584;2023-09-12T10:43:55;18.83;;;5.57;;
24485;SDS011;13449;49.374;8.584;2023-09-12T10:46:24;16.42;;;5.70;;
24485;SDS011;13449;49.374;8.584;2023-09-12T10:48:50;8.43;;;5.15;;
24485;SDS011;13449;49.374;8.584;2023-09-12T10:51:20;10.38;;;5.07;;
24485;SDS011;13449;49.374;8.584;2023-09-12T10:53:49;17.70;;;5.63;;
24485;SDS011;13449;49.374;8.584;2023-09-12T10:56:17;9.10;;;5.85;;
24485;SDS011;13449;49.374;8.584;2023-09-12T11:01:34;9.07;;;5.07;;
24485;SDS011;13449;49.374;8.584;2023-09-12T11:06:46;18.52;;;5.18;;
24485;SDS011;13449;49.374;8.584;2023-09-12T11:09:17;10.87;;;5.93;;
24485;SDS011;13449;49.374;8.584;2023-09-12T11:11:47;7.57;;;4.97;;
24485;SDS011;13449;49.374;8.584;2023-09-12T11:14:25;13.90;;;5.88;;
24485;SDS011;13449;49.374;8.584;2023-09-12T11:19:50;10.05;;;5.50;;
24485;SDS011;13449;49.374;8.584;2023-09-12T11:22:30;12.68;;;5.57;;
24485;SDS011;13449;49.374;8.584;2023-09-12T11:25:01;8.05;;;5.32;;
24485;SDS011;13449;49.374;8.584;2023-09-12T11:27:32;14.25;;;5.88;;
24485;SDS011;13449;49.374;8.584;2023-09-12T11:30:10;10.82;;;5.25;;
24485;SDS011;13449;49.374;8.584;2023-09-12T11:32:38;12.68;;;5.93;;
24485;SDS011;13449;49.374;8.584;2023-09-12T11:35:08;11.82;;;5.05;;
24485;SDS011;13449;49.374;8.584;2023-09-12T11:37:34;6.43;;;4.85;;
24485;SDS011;13449;49.374;8.584;2023-09-12T11:42:40;17.73;;;5.78;;
24485;SDS011;13449;49.374;8.584;2023-09-12T11:45:11;11.18;;;5.03;;
24485;SDS011;13449;49.374;8.584;2023-09-12T11:47:41;14.43;;;5.82;;
24485;SDS011;13449;49.374;8.584;2023-09-12T11:50:09;23.50;;;5.35;;
24485;SDS011;13449;49.374;8.584;2023-09-12T11:53:02;8.23;;;5.30;;
24485;SDS011;13449;49.374;8.584;2023-09-12T11:55:54;15.57;;;5.05;;
24485;SDS011;13449;49.374;8.584;2023-09-12T11:58:20;6.13;;;4.57;;
24485;SDS011;13449;49.374;8.584;2023-09-12T12:00:51;9.15;;;4.68;;
24485;SDS011;13449;49.374;8.584;2023-09-12T12:05:49;11.57;;;4.55;;
24485;SDS011;13449;49.374;8.584;2023-09-12T12:08:19;12.43;;;4.80;;
24485;SDS011;13449;49.374;8.584;2023-09-12T12:10:57;17.50;;;4.88;;
24485;SDS011;13449;49.374;8.584;2023-09-12T12:13:26;9.82;;;5.03;;
24485;SDS011;13449;49.374;8.584;2023-09-12T12:15:54;6.28;;;4.40;;
24485;SDS011;13449;49.374;8.584;2023-09-12T12:18:24;6.63;;;4.57;;
24485;SDS011;13449;49.374;8.584;2023-09-12T12:20:51;8.98;;;3.97;;
24485;SDS011;13449;49.374;8.584;2023-09-12T12:23:17;12.15;;;5.10;;
24485;SDS011;13449;49.374;8.584;2023-09-12T12:25:44;5.88;;;4.25;;
24485;SDS011;13449;49.374;8.584;2023-09-12T12:28:11;6.93;;;4.45;;
24485;SDS011;13449;49.374;8.584;2023-09-12T12:30:40;10.05;;;5.13;;
24485;SDS011;13449;49.374;8.584;2023-09-12T12:33:09;9.73;;;4.28;;
24485;SDS011;13449;49.374;8.584;2023-09-12T12:36:03;15.15;;;4.68;;
24485;SDS011;13449;49.374;8.584;2023-09-12T12:38:35;9.27;;;4.53;;
24485;SDS011;13449;49.374;8.584;2023-09-12T12:41:10;15.20;;;4.85;;
24485;SDS011;13449;49.374;8.584;2023-09-12T12:43:39;6.68;;;4.00;;
24485;SDS011;13449;49.374;8.584;2023-09-12T12:46:12;7.20;;;4.93;;
24485;SDS011;13449;49.374;8.584;2023-09-12T12:48:41;8.50;;;4.73;;
24485;SDS011;13449;49.374;8.584;2023-09-12T12:51:16;10.02;;;4.70;;
24485;SDS011;13449;49.374;8.584;2023-09-12T12:53:52;6.53;;;4.85;;
24485;SDS011;13449;49.374;8.584;2023-09-12T12:56:22;7.18;;;4.78;;
24485;SDS011;13449;49.374;8.584;2023-09-12T12:58:54;9.10;;;5.20;;
24485;SDS011;13449;49.374;8.584;2023-09-12T13:01:28;12.00;;;4.32;;
24485;SDS011;13449;49.374;8.584;2023-09-12T13:03:55;6.78;;;4.22;;
24485;SDS011;13449;49.374;8.584;2023-09-12T13:06:23;8.35;;;4.40;;
24485;SDS011;13449;49.374;8.584;2023-09-12T13:08:57;6.85;;;4.40;;
24485;SDS011;13449;49.374;8.584;2023-09-12T13:11:26;6.70;;;4.97;;
24485;SDS011;13449;49.374;8.584;2023-09-12T13:13:53;20.98;;;11.70;;
24485;SDS011;13449;49.374;8.584;2023-09-12T13:16:21;19.52;;;5.75;;
24485;SDS011;13449;49.374;8.584;2023-09-12T13:18:47;12.10;;;5.00;;
24485;SDS011;13449;49.374;8.584;2023-09-12T13:21:14;8.02;;;4.65;;
24485;SDS011;13449;49.374;8.584;2023-09-12T13:23:40;8.70;;;4.78;;
24485;SDS011;13449;49.374;8.584;2023-09-12T13:26:08;10.52;;;4.43;;
24485;SDS011;13449;49.374;8.584;2023-09-12T13:28:37;5.18;;;4.40;;
24485;SDS011;13449;49.374;8.584;2023-09-12T13:31:04;10.98;;;4.53;;
24485;SDS011;13449;49.374;8.584;2023-09-12T13:33:33;8.05;;;4.72;;
24485;SDS011;13449;49.374;8.584;2023-09-12T13:36:00;8.40;;;5.60;;
24485;SDS011;13449;49.374;8.584;2023-09-12T13:38:26;11.02;;;4.80;;
24485;SDS011;13449;49.374;8.584;2023-09-12T13:40:53;6.00;;;4.40;;
24485;SDS011;13449;49.374;8.584;2023-09-12T13:43:21;19.27;;;4.60;;
24485;SDS011;13449;49.374;8.584;2023-09-12T13:45:49;4.28;;;3.83;;
24485;SDS011;13449;49.374;8.584;2023-09-12T13:48:16;9.48;;;4.10;;
24485;SDS011;13449;49.374;8.584;2023-09-12T13:50:42;6.75;;;5.03;;
24485;SDS011;13449;49.374;8.584;2023-09-12T13:53:09;10.18;;;4.65;;
24485;SDS011;13449;49.374;8.584;2023-09-12T13:55:36;6.93;;;4.10;;
24485;SDS011;13449;49.374;8.584;2023-09-12T13:58:23;7.07;;;4.45;;
24485;SDS011;13449;49.374;8.584;2023-09-12T14:00:55;7.20;;;3.67;;
24485;SDS011;13449;49.374;8.584;2023-09-12T14:03:22;8.38;;;4.15;;
24485;SDS011;13449;49.374;8.584;2023-09-12T14:05:49;9.30;;;4.75;;
24485;SDS011;13449;49.374;8.584;2023-09-12T14:08:17;7.80;;;4.50;;
24485;SDS011;13449;49.374;8.584;2023-09-12T14:10:44;9.73;;;4.50;;
24485;SDS011;13449;49.374;8.584;2023-09-12T14:13:11;7.63;;;4.57;;
24485;SDS011;13449;49.374;8.584;2023-09-12T14:15:47;7.60;;;4.30;;
24485;SDS011;13449;49.374;8.584;2023-09-12T14:18:19;8.95;;;5.05;;
24485;SDS011;13449;49.374;8.584;2023-09-12T14:20:47;11.77;;;4.53;;
24485;SDS011;13449;49.374;8.584;2023-09-12T14:23:17;6.53;;;3.85;;
24485;SDS011;13449;49.374;8.584;2023-09-12T14:25:43;6.90;;;4.22;;
24485;SDS011;13449;49.374;8.584;2023-09-12T14:28:11;4.18;;;3.70;;
24485;SDS011;13449;49.374;8.584;2023-09-12T14:30:43;7.40;;;3.90;;
24485;SDS011;13449;49.374;8.584;2023-09-12T14:33:14;5.75;;;4.40;;
24485;SDS011;13449;49.374;8.584;2023-09-12T14:35:43;7.45;;;3.65;;
24485;SDS011;13449;49.374;8.584;2023-09-12T14:38:15;9.43;;;3.88;;
24485;SDS011;13449;49.374;8.584;2023-09-12T14:40:42;5.50;;;3.60;;
24485;SDS011;13449;49.374;8.584;2023-09-12T14:43:11;6.80;;;4.07;;
24485;SDS011;13449;49.374;8.584;2023-09-12T14:45:38;5.35;;;3.72;;
24485;SDS011;13449;49.374;8.584;2023-09-12T14:48:05;6.00;;;4.47;;
24485;SDS011;13449;49.374;8.584;2023-09-12T14:50:32;4.80;;;3.88;;
24485;SDS011;13449;49.374;8.584;2023-09-12T14:53:08;8.27;;;4.07;;
24485;SDS011;13449;49.374;8.584;2023-09-12T14:55:34;9.25;;;3.88;;
24485;SDS011;13449;49.374;8.584;2023-09-12T14:58:01;8.90;;;4.68;;
24485;SDS011;13449;49.374;8.584;2023-09-12T15:00:27;8.20;;;4.35;;
24485;SDS011;13449;49.374;8.584;2023-09-12T15:02:54;8.68;;;4.10;;
24485;SDS011;13449;49.374;8.584;2023-09-12T15:05:21;6.05;;;3.70;;
24485;SDS011;13449;49.374;8.584;2023-09-12T15:07:48;4.30;;;3.67;;
24485;SDS011;13449;49.374;8.584;2023-09-12T15:10:19;7.25;;;4.18;;
24485;SDS011;13449;49.374;8.584;2023-09-12T15:12:46;7.57;;;4.60;;